createdAt,value
2022-08-27T00:00:17.857Z,89.63
2022-08-27T00:02:45.731Z,89.96
2022-08-27T00:05:14.637Z,92.71
2022-08-27T00:07:42.768Z,91.55
2022-08-27T00:10:14.957Z,90.79
2022-08-27T00:12:41.801Z,91.31
2022-08-27T00:15:09.168Z,90.32
2022-08-27T00:17:38.622Z,90.78
2022-08-27T00:20:07.364Z,91.64
2022-08-27T00:22:34.596Z,89.12
2022-08-27T00:25:01.492Z,91.80
2022-08-27T00:27:28.088Z,91.95
2022-08-27T00:29:54.865Z,92.64
2022-08-27T00:32:21.527Z,92.31
2022-08-27T00:34:48.146Z,92.05
2022-08-27T00:37:14.976Z,92.77
2022-08-27T00:39:41.597Z,93.00
2022-08-27T00:42:08.186Z,93.12
2022-08-27T00:44:35.518Z,93.58
2022-08-27T00:47:05.921Z,93.82
2022-08-27T00:49:40.679Z,92.92
2022-08-27T00:52:21.997Z,93.37
2022-08-27T00:54:52.241Z,92.31
2022-08-27T00:57:19.260Z,92.61
2022-08-27T00:59:46.049Z,91.85
2022-08-27T01:02:19.102Z,92.70
2022-08-27T01:05:15.319Z,91.69
2022-08-27T01:07:45.531Z,92.31
2022-08-27T01:10:16.753Z,93.46
2022-08-27T01:12:43.873Z,93.12
2022-08-27T01:15:19.797Z,92.46
2022-08-27T01:17:48.425Z,90.47
2022-08-27T01:20:22.477Z,93.73
2022-08-27T01:22:49.009Z,91.86
2022-08-27T01:25:18.123Z,92.30
2022-08-27T01:27:47.246Z,94.60
2022-08-27T01:30:17.509Z,92.08
2022-08-27T01:32:45.512Z,95.24
2022-08-27T01:35:14.861Z,93.01
2022-08-27T01:37:43.760Z,94.09
2022-08-27T01:40:13.536Z,92.25
2022-08-27T01:42:46.349Z,93.20
2022-08-27T01:45:40.148Z,92.88
2022-08-27T01:48:08.201Z,91.99
2022-08-27T01:50:37.639Z,93.05
2022-08-27T01:53:14.564Z,95.17
2022-08-27T01:55:43.440Z,94.74
2022-08-27T01:58:15.635Z,95.96
2022-08-27T02:00:45.173Z,94.30
2022-08-27T02:03:12.425Z,94.42
2022-08-27T02:05:45.034Z,93.21
2022-08-27T02:08:15.645Z,91.80
2022-08-27T02:10:44.665Z,92.42
2022-08-27T02:13:13.325Z,92.00
2022-08-27T02:15:41.850Z,93.18
2022-08-27T02:18:10.549Z,91.70
2022-08-27T02:20:37.471Z,93.26
2022-08-27T02:23:04.783Z,91.52
2022-08-27T02:25:31.704Z,92.86
2022-08-27T02:28:00.265Z,94.96
2022-08-27T02:30:29.550Z,94.36
2022-08-27T02:32:56.192Z,92.93
2022-08-27T02:35:24.614Z,92.74
2022-08-27T02:37:51.822Z,95.06
2022-08-27T02:40:22.408Z,93.12
2022-08-27T02:42:49.902Z,94.24
2022-08-27T02:45:18.200Z,93.94
2022-08-27T02:47:45.218Z,93.64
2022-08-27T02:50:13.480Z,92.44
2022-08-27T02:52:40.489Z,93.31
2022-08-27T02:55:07.520Z,92.51
2022-08-27T02:57:37.229Z,93.59
2022-08-27T03:00:12.202Z,94.07
2022-08-27T03:02:39.186Z,93.64
2022-08-27T03:05:11.953Z,93.71
2022-08-27T03:07:38.584Z,94.61
2022-08-27T03:10:06.552Z,94.01
2022-08-27T03:12:36.044Z,92.45
2022-08-27T03:15:12.024Z,93.87
2022-08-27T03:17:57.342Z,92.75
2022-08-27T03:20:25.852Z,93.59
2022-08-27T03:22:52.939Z,93.53
2022-08-27T03:25:20.239Z,92.59
2022-08-27T03:27:47.059Z,92.99
2022-08-27T03:30:20.057Z,93.13
2022-08-27T03:32:47.038Z,92.97
2022-08-27T03:35:14.810Z,93.45
2022-08-27T03:37:41.757Z,93.60
2022-08-27T03:40:09.217Z,93.42
2022-08-27T03:42:36.461Z,94.50
2022-08-27T03:45:03.825Z,94.45
2022-08-27T03:47:33.788Z,94.17
2022-08-27T03:50:00.757Z,93.92
2022-08-27T03:52:28.821Z,92.72
2022-08-27T03:54:55.450Z,93.83
2022-08-27T03:57:22.070Z,92.79
2022-08-27T03:59:48.659Z,93.49
2022-08-27T04:02:20.914Z,93.82
2022-08-27T04:04:47.510Z,93.23
2022-08-27T04:07:14.106Z,91.77
2022-08-27T04:09:40.764Z,92.98
2022-08-27T04:12:07.563Z,92.83
2022-08-27T04:14:34.668Z,92.76
2022-08-27T04:17:01.360Z,93.58
2022-08-27T04:19:28.691Z,92.85
2022-08-27T04:22:00.353Z,92.99
2022-08-27T04:24:27.231Z,92.85
2022-08-27T04:26:53.828Z,91.89
2022-08-27T04:29:20.433Z,92.94
2022-08-27T04:31:47.412Z,91.46
2022-08-27T04:34:14.005Z,94.29
2022-08-27T04:36:40.604Z,94.39
2022-08-27T04:39:07.241Z,92.14
2022-08-27T04:41:34.264Z,93.01
2022-08-27T04:44:08.829Z,94.56
2022-08-27T04:46:40.802Z,94.71
2022-08-27T04:49:15.330Z,94.28
2022-08-27T04:51:43.024Z,94.70
2022-08-27T04:54:10.820Z,92.42
2022-08-27T04:56:38.352Z,93.32
2022-08-27T04:59:08.163Z,92.18
2022-08-27T05:01:36.103Z,94.40
2022-08-27T05:04:03.104Z,94.31
2022-08-27T05:06:30.449Z,95.20
2022-08-27T05:08:57.202Z,94.17
2022-08-27T05:11:27.161Z,92.93
2022-08-27T05:13:54.230Z,94.13
2022-08-27T05:16:23.418Z,93.60
2022-08-27T05:18:51.882Z,93.68
2022-08-27T05:21:20.553Z,93.50
2022-08-27T05:23:50.156Z,93.79
2022-08-27T05:26:17.117Z,93.08
2022-08-27T05:28:44.244Z,93.43
2022-08-27T05:31:12.707Z,92.76
2022-08-27T05:33:40.798Z,92.49
2022-08-27T05:36:14.732Z,93.05
2022-08-27T05:38:42.582Z,93.98
2022-08-27T05:41:11.877Z,92.97
2022-08-27T05:43:41.320Z,93.05
2022-08-27T05:46:10.927Z,92.47
2022-08-27T05:48:39.581Z,93.17
2022-08-27T05:51:25.464Z,93.96
2022-08-27T05:53:58.379Z,93.92
2022-08-27T05:56:30.318Z,92.23
2022-08-27T05:59:15.521Z,93.13
2022-08-27T06:01:45.872Z,93.17
2022-08-27T06:04:17.904Z,93.66
2022-08-27T06:06:46.406Z,92.72
2022-08-27T06:09:18.745Z,93.41
2022-08-27T06:11:46.480Z,93.49
2022-08-27T06:14:13.237Z,93.75
2022-08-27T06:16:40.593Z,93.84
2022-08-27T06:19:09.422Z,91.75
2022-08-27T06:21:36.058Z,91.20
2022-08-27T06:24:02.888Z,92.70
2022-08-27T06:26:29.961Z,92.95
2022-08-27T06:28:57.025Z,90.44
2022-08-27T06:31:26.970Z,89.74
2022-08-27T06:33:58.522Z,89.31
2022-08-27T06:36:30.700Z,90.72
2022-08-27T06:38:57.825Z,89.78
2022-08-27T06:41:27.547Z,89.50
2022-08-27T06:43:56.597Z,89.25
2022-08-27T06:46:26.060Z,90.29
2022-08-27T06:48:55.732Z,90.27
2022-08-27T06:51:26.318Z,89.62
2022-08-27T06:53:54.857Z,90.02
2022-08-27T06:56:22.335Z,90.31
2022-08-27T06:58:53.474Z,90.40
2022-08-27T07:01:25.130Z,89.63
2022-08-27T07:03:54.841Z,89.60
2022-08-27T07:06:25.532Z,90.43
2022-08-27T07:08:53.196Z,90.14
2022-08-27T07:11:21.460Z,89.98
2022-08-27T07:13:49.595Z,88.59
2022-08-27T07:16:23.273Z,86.01
2022-08-27T07:18:52.747Z,88.37
2022-08-27T07:21:20.812Z,87.45
2022-08-27T07:23:48.705Z,86.66
2022-08-27T07:26:16.588Z,88.81
2022-08-27T07:28:44.504Z,87.33
2022-08-27T07:31:13.709Z,87.21
2022-08-27T07:33:51.406Z,88.02
2022-08-27T07:36:21.206Z,85.86
2022-08-27T07:39:01.195Z,85.00
2022-08-27T07:41:31.945Z,85.87
2022-08-27T07:44:18.765Z,85.95
2022-08-27T07:46:47.880Z,89.23
2022-08-27T07:49:19.308Z,87.38
2022-08-27T07:51:46.321Z,86.24
2022-08-27T07:54:14.432Z,84.17
2022-08-27T07:56:41.679Z,88.62
2022-08-27T07:59:08.923Z,81.28
2022-08-27T08:01:36.019Z,82.05
2022-08-27T08:04:03.251Z,82.48
2022-08-27T08:06:29.940Z,83.93
2022-08-27T08:08:56.625Z,81.70
2022-08-27T08:11:23.316Z,81.47
2022-08-27T08:13:49.987Z,84.59
2022-08-27T08:16:17.194Z,81.78
2022-08-27T08:18:43.897Z,85.08
2022-08-27T08:21:13.233Z,82.33
2022-08-27T08:23:41.646Z,82.35
2022-08-27T08:26:09.249Z,80.09
2022-08-27T08:28:37.102Z,81.86
2022-08-27T08:31:05.112Z,83.75
2022-08-27T08:33:32.876Z,81.14
2022-08-27T08:36:10.079Z,79.77
2022-08-27T08:38:44.756Z,81.75
2022-08-27T08:41:40.681Z,78.82
2022-08-27T08:44:19.720Z,79.85
2022-08-27T08:46:59.457Z,80.08
2022-08-27T08:49:53.591Z,79.05
2022-08-27T08:52:37.267Z,78.98
2022-08-27T08:55:13.175Z,80.42
2022-08-27T08:57:49.061Z,80.27
2022-08-27T09:00:16.765Z,79.04
2022-08-27T09:02:50.988Z,78.82
2022-08-27T09:05:17.744Z,78.58
2022-08-27T09:08:15.112Z,78.35
2022-08-27T09:10:59.954Z,79.37
2022-08-27T09:13:42.309Z,79.54
2022-08-27T09:16:09.380Z,80.42
2022-08-27T09:18:41.760Z,77.28
2022-08-27T09:21:30.373Z,80.91
2022-08-27T09:24:25.550Z,82.78
2022-08-27T09:26:52.778Z,80.44
2022-08-27T09:29:25.322Z,82.63
2022-08-27T09:31:59.514Z,79.71
2022-08-27T09:34:33.687Z,79.39
2022-08-27T09:37:08.161Z,78.05
2022-08-27T09:39:40.241Z,80.57
2022-08-27T09:42:24.498Z,77.54
2022-08-27T09:44:54.679Z,75.68
2022-08-27T09:47:21.453Z,77.76
2022-08-27T09:49:48.213Z,74.05
2022-08-27T09:52:37.736Z,74.84
2022-08-27T09:55:05.520Z,78.35
2022-08-27T09:57:40.707Z,73.87
2022-08-27T10:00:15.232Z,73.50
2022-08-27T10:02:57.722Z,71.54
2022-08-27T10:05:32.847Z,72.53
2022-08-27T10:08:03.517Z,79.04
2022-08-27T10:10:42.294Z,75.34
2022-08-27T10:13:14.152Z,73.87
2022-08-27T10:15:49.420Z,72.46
2022-08-27T10:18:31.981Z,72.11
2022-08-27T10:21:46.406Z,76.86
2022-08-27T10:24:31.456Z,74.84
2022-08-27T10:27:24.181Z,71.87
2022-08-27T10:30:08.467Z,76.50
2022-08-27T10:32:57.704Z,73.24
2022-08-27T10:35:59.748Z,74.22
2022-08-27T10:38:44.852Z,75.21
2022-08-27T10:41:28.623Z,74.12
2022-08-27T10:44:16.961Z,72.36
2022-08-27T10:47:11.433Z,76.53
2022-08-27T10:50:00.470Z,77.49
2022-08-27T10:52:34.472Z,76.20
2022-08-27T10:55:10.375Z,74.41
2022-08-27T10:58:00.119Z,74.95
2022-08-27T11:01:01.912Z,73.68
2022-08-27T11:03:39.649Z,74.74
2022-08-27T11:06:33.805Z,71.75
2022-08-27T11:09:11.475Z,72.29
2022-08-27T11:14:52.946Z,73.50
2022-08-27T11:17:38.285Z,71.36
2022-08-27T11:20:19.001Z,73.04
2022-08-27T11:22:49.397Z,79.15
2022-08-27T11:25:53.211Z,72.28
2022-08-27T11:28:30.025Z,70.19
2022-08-27T11:31:04.550Z,71.96
2022-08-27T11:34:03.469Z,71.97
2022-08-27T11:36:39.157Z,68.78
2022-08-27T11:39:27.915Z,69.52
2022-08-27T11:42:22.248Z,73.14
2022-08-27T11:44:54.376Z,74.16
2022-08-27T11:47:28.128Z,72.32
2022-08-27T11:49:58.425Z,67.77
2022-08-27T11:52:40.265Z,66.49
2022-08-27T11:55:14.585Z,63.14
2022-08-27T11:57:41.750Z,65.47
2022-08-27T12:00:26.613Z,64.46
2022-08-27T12:03:09.361Z,71.68
2022-08-27T12:05:41.084Z,68.67
2022-08-27T12:08:16.896Z,64.94
2022-08-27T12:10:51.828Z,64.49
2022-08-27T12:13:54.487Z,64.25
2022-08-27T12:16:25.972Z,66.01
2022-08-27T12:19:30.120Z,65.23
2022-08-27T12:22:11.452Z,64.14
2022-08-27T12:24:41.081Z,63.81
2022-08-27T12:27:31.974Z,66.21
2022-08-27T12:29:59.963Z,65.05
2022-08-27T12:32:46.978Z,63.62
2022-08-27T12:35:23.423Z,66.17
2022-08-27T12:37:57.664Z,64.09
2022-08-27T12:40:46.338Z,63.98
2022-08-27T12:43:24.828Z,64.06
2022-08-27T12:45:57.523Z,62.49
2022-08-27T12:48:28.063Z,67.53
2022-08-27T12:51:01.601Z,62.21
2022-08-27T12:53:52.999Z,62.46
2022-08-27T12:56:48.535Z,64.08
2022-08-27T12:59:46.413Z,66.10
2022-08-27T13:02:46.347Z,64.69
2022-08-27T13:05:13.595Z,62.73
2022-08-27T13:07:44.733Z,62.93
2022-08-27T13:10:16.612Z,63.23
2022-08-27T13:12:44.624Z,61.64
2022-08-27T13:15:15.731Z,63.36
2022-08-27T13:17:46.518Z,62.85
2022-08-27T13:20:23.748Z,62.17
2022-08-27T13:22:52.504Z,63.10
2022-08-27T13:25:31.024Z,63.16
2022-08-27T13:28:19.933Z,64.50
2022-08-27T13:30:47.988Z,67.34
2022-08-27T13:33:30.062Z,70.19
2022-08-27T13:35:58.254Z,65.44
2022-08-27T13:38:28.892Z,61.74
2022-08-27T13:41:05.932Z,62.34
2022-08-27T13:43:38.280Z,60.00
2022-08-27T13:46:09.181Z,61.68
2022-08-27T13:48:36.198Z,61.19
2022-08-27T13:51:03.240Z,62.14
2022-08-27T13:56:47.977Z,67.14
2022-08-27T13:59:22.244Z,65.23
2022-08-27T14:02:00.558Z,66.40
2022-08-27T14:04:42.936Z,58.60
2022-08-27T14:07:14.540Z,64.33
2022-08-27T14:09:54.389Z,60.24
2022-08-27T14:12:32.823Z,63.08
2022-08-27T14:15:23.908Z,60.70
2022-08-27T14:17:51.177Z,62.67
2022-08-27T14:20:19.348Z,62.48
2022-08-27T14:22:47.072Z,61.04
2022-08-27T14:25:14.902Z,61.45
2022-08-27T14:27:45.056Z,61.79
2022-08-27T14:30:24.602Z,63.28
2022-08-27T14:32:58.504Z,64.87
2022-08-27T14:35:25.808Z,65.55
2022-08-27T14:37:52.610Z,61.49
2022-08-27T14:40:19.637Z,61.77
2022-08-27T14:42:46.626Z,68.50
2022-08-27T14:45:13.337Z,63.86
2022-08-27T14:47:42.442Z,63.74
2022-08-27T14:50:13.921Z,62.08
2022-08-27T14:52:40.989Z,64.74
2022-08-27T14:55:10.865Z,63.02
2022-08-27T14:57:38.688Z,63.43
2022-08-27T15:00:07.716Z,64.79
2022-08-27T15:02:44.505Z,62.68
2022-08-27T15:05:16.216Z,62.15
2022-08-27T15:07:45.635Z,62.85
2022-08-27T15:10:14.571Z,62.34
2022-08-27T15:12:41.700Z,63.12
2022-08-27T15:15:10.408Z,64.42
2022-08-27T15:17:37.861Z,61.67
2022-08-27T15:20:08.619Z,62.36
2022-08-27T15:22:44.165Z,62.28
2022-08-27T15:25:12.208Z,61.00
2022-08-27T15:27:39.354Z,62.87
2022-08-27T15:30:09.996Z,62.89
2022-08-27T15:32:40.284Z,63.15
2022-08-27T15:35:12.395Z,61.57
2022-08-27T15:37:39.464Z,62.72
2022-08-27T15:40:06.932Z,62.24
2022-08-27T15:42:33.961Z,61.48
2022-08-27T15:45:00.645Z,62.87
2022-08-27T15:47:27.266Z,62.68
2022-08-27T15:49:53.897Z,63.19
2022-08-27T15:52:23.297Z,63.66
2022-08-27T15:54:51.313Z,64.14
2022-08-27T15:57:20.429Z,65.08
2022-08-27T15:59:47.482Z,64.84
2022-08-27T16:02:20.590Z,64.30
2022-08-27T16:04:49.190Z,65.05
2022-08-27T16:07:17.809Z,65.31
2022-08-27T16:09:48.110Z,65.70
2022-08-27T16:12:26.785Z,65.94
2022-08-27T16:14:54.676Z,64.90
2022-08-27T16:17:21.637Z,64.33
2022-08-27T16:19:48.462Z,64.03
2022-08-27T16:22:16.312Z,64.16
2022-08-27T16:24:43.020Z,63.99
2022-08-27T16:27:10.037Z,64.16
2022-08-27T16:29:37.185Z,64.70
2022-08-27T16:32:04.533Z,65.27
2022-08-27T16:34:32.165Z,65.17
2022-08-27T16:37:00.061Z,65.57
2022-08-27T16:39:31.759Z,65.56
2022-08-27T16:41:59.926Z,65.53
2022-08-27T16:44:26.788Z,66.07
2022-08-27T16:46:53.528Z,66.04
2022-08-27T16:49:39.769Z,66.84
2022-08-27T16:52:07.389Z,66.24
2022-08-27T16:54:34.798Z,66.75
2022-08-27T16:57:01.597Z,66.54
2022-08-27T16:59:28.176Z,66.73
2022-08-27T17:01:56.695Z,66.75
2022-08-27T17:04:30.289Z,68.09
2022-08-27T17:06:59.110Z,67.42
2022-08-27T17:09:26.158Z,67.67
2022-08-27T17:11:57.793Z,67.79
2022-08-27T17:14:24.737Z,68.54
2022-08-27T17:16:54.148Z,68.64
2022-08-27T17:19:24.389Z,68.37
2022-08-27T17:21:52.434Z,68.70
2022-08-27T17:24:19.194Z,68.82
2022-08-27T17:26:45.844Z,69.25
2022-08-27T17:29:12.622Z,69.69
2022-08-27T17:31:42.383Z,70.27
2022-08-27T17:34:16.534Z,70.33
2022-08-27T17:36:44.196Z,70.25
2022-08-27T17:39:11.635Z,71.27
2022-08-27T17:41:41.634Z,71.25
2022-08-27T17:44:28.194Z,71.91
2022-08-27T17:46:57.601Z,72.07
2022-08-27T17:49:25.555Z,72.27
2022-08-27T17:51:57.280Z,72.34
2022-08-27T17:54:38.678Z,73.11
2022-08-27T17:57:17.381Z,72.85
2022-08-27T17:59:44.966Z,73.60
2022-08-27T18:02:18.917Z,73.45
2022-08-27T18:04:45.661Z,74.28
2022-08-27T18:07:12.372Z,74.03
2022-08-27T18:09:39.940Z,74.20
2022-08-27T18:12:07.612Z,75.80
2022-08-27T18:14:35.724Z,75.32
2022-08-27T18:17:02.681Z,76.40
2022-08-27T18:19:29.531Z,77.45
2022-08-27T18:21:56.152Z,76.86
2022-08-27T18:24:22.811Z,76.30
2022-08-27T18:26:49.679Z,76.93
2022-08-27T18:29:16.716Z,77.00
2022-08-27T18:31:44.134Z,77.91
2022-08-27T18:34:10.798Z,78.14
2022-08-27T18:36:37.641Z,78.32
2022-08-27T18:39:04.354Z,78.58
2022-08-27T18:41:31.997Z,78.22
2022-08-27T18:44:00.692Z,78.11
2022-08-27T18:46:27.515Z,78.38
2022-08-27T18:48:54.144Z,78.20
2022-08-27T18:51:21.061Z,79.01
2022-08-27T18:53:48.716Z,80.06
2022-08-27T18:56:20.045Z,79.96
2022-08-27T18:58:47.496Z,80.55
2022-08-27T19:01:22.720Z,79.91
2022-08-27T19:03:52.259Z,80.86
2022-08-27T19:06:21.221Z,81.09
2022-08-27T19:08:52.620Z,81.10
2022-08-27T19:11:20.252Z,82.16
2022-08-27T19:13:50.444Z,82.00
2022-08-27T19:16:24.098Z,81.75
2022-08-27T19:18:54.272Z,82.14
2022-08-27T19:21:20.954Z,82.04
2022-08-27T19:23:50.737Z,82.94
2022-08-27T19:26:23.617Z,82.68
2022-08-27T19:28:50.245Z,82.90
2022-08-27T19:31:17.052Z,83.52
2022-08-27T19:33:44.532Z,82.76
2022-08-27T19:36:15.772Z,83.69
2022-08-27T19:38:43.910Z,84.86
2022-08-27T19:41:11.208Z,84.34
2022-08-27T19:43:37.889Z,84.43
2022-08-27T19:46:05.408Z,84.70
2022-08-27T19:48:34.201Z,83.53
2022-08-27T19:51:01.153Z,85.43
2022-08-27T19:53:27.838Z,83.77
2022-08-27T19:55:54.580Z,85.01
2022-08-27T19:58:21.420Z,83.83
2022-08-27T20:00:48.941Z,85.19
2022-08-27T20:03:16.231Z,83.84
2022-08-27T20:05:45.152Z,85.05
2022-08-27T20:08:12.593Z,86.88
2022-08-27T20:10:40.226Z,86.06
2022-08-27T20:13:07.901Z,85.96
2022-08-27T20:15:35.718Z,87.25
2022-08-27T20:18:03.993Z,87.09
2022-08-27T20:20:31.778Z,87.05
2022-08-27T20:22:59.882Z,87.15
2022-08-27T20:25:26.589Z,85.73
2022-08-27T20:27:53.336Z,88.11
2022-08-27T20:30:23.125Z,87.59
2022-08-27T20:32:49.865Z,86.92
2022-08-27T20:35:17.885Z,85.87
2022-08-27T20:37:46.147Z,86.33
2022-08-27T20:40:18.220Z,87.44
2022-08-27T20:42:44.990Z,88.05
2022-08-27T20:45:12.938Z,88.85
2022-08-27T20:47:42.153Z,86.85
2022-08-27T20:50:09.861Z,86.48
2022-08-27T20:52:39.337Z,86.69
2022-08-27T20:55:06.564Z,86.15
2022-08-27T20:57:33.316Z,86.76
2022-08-27T21:00:19.163Z,86.96
2022-08-27T21:02:46.934Z,87.58
2022-08-27T21:05:17.101Z,87.08
2022-08-27T21:07:45.961Z,87.47
2022-08-27T21:10:15.758Z,87.47
2022-08-27T21:12:42.384Z,87.21
2022-08-27T21:15:09.820Z,85.84
2022-08-27T21:17:36.846Z,86.98
2022-08-27T21:20:09.454Z,86.43
2022-08-27T21:22:36.061Z,86.27
2022-08-27T21:25:02.786Z,87.50
2022-08-27T21:27:29.461Z,86.60
2022-08-27T21:29:56.533Z,87.27
2022-08-27T21:32:23.216Z,87.67
2022-08-27T21:34:50.553Z,87.49
2022-08-27T21:37:18.333Z,88.92
2022-08-27T21:39:45.296Z,88.53
2022-08-27T21:42:13.083Z,89.05
2022-08-27T21:44:39.791Z,87.72
2022-08-27T21:47:06.651Z,90.09
2022-08-27T21:49:33.681Z,87.63
2022-08-27T21:52:05.956Z,87.94
2022-08-27T21:54:36.821Z,86.56
2022-08-27T21:57:04.510Z,88.14
2022-08-27T21:59:52.374Z,89.83
2022-08-27T22:02:39.191Z,87.28
2022-08-27T22:05:06.449Z,88.40
2022-08-27T22:07:33.093Z,89.78
2022-08-27T22:09:59.966Z,87.72
2022-08-27T22:12:26.541Z,87.75
2022-08-27T22:14:53.216Z,88.92
2022-08-27T22:17:19.863Z,88.98
2022-08-27T22:19:46.447Z,89.64
2022-08-27T22:22:13.293Z,90.34
2022-08-27T22:24:39.888Z,88.84
2022-08-27T22:27:06.545Z,90.69
2022-08-27T22:29:35.158Z,88.70
2022-08-27T22:32:10.553Z,89.94
2022-08-27T22:34:37.224Z,89.16
2022-08-27T22:37:04.304Z,88.71
2022-08-27T22:39:31.111Z,88.24
2022-08-27T22:41:58.125Z,86.75
2022-08-27T22:44:29.246Z,88.13
2022-08-27T22:46:57.156Z,88.89
2022-08-27T22:49:24.201Z,89.11
2022-08-27T22:51:50.860Z,89.66
2022-08-27T22:54:20.032Z,87.91
2022-08-27T22:56:46.720Z,87.91
2022-08-27T22:59:13.508Z,89.09
2022-08-27T23:01:40.705Z,88.59
2022-08-27T23:04:07.576Z,87.84
2022-08-27T23:06:34.959Z,88.38
2022-08-27T23:09:01.865Z,88.42
2022-08-27T23:11:31.934Z,88.46
2022-08-27T23:13:59.574Z,87.88
2022-08-27T23:16:27.091Z,88.25
2022-08-27T23:18:54.288Z,89.08
2022-08-27T23:21:20.985Z,89.22
2022-08-27T23:23:47.628Z,87.06
2022-08-27T23:26:32.941Z,87.83
2022-08-27T23:28:59.600Z,88.38
2022-08-27T23:31:26.541Z,88.52
2022-08-27T23:33:56.057Z,87.14
2022-08-27T23:36:23.385Z,87.81
2022-08-27T23:38:50.102Z,87.56
2022-08-27T23:41:16.958Z,87.06
2022-08-27T23:43:44.262Z,87.42
2022-08-27T23:46:12.014Z,88.80
2022-08-27T23:48:39.529Z,88.06
2022-08-27T23:51:07.687Z,88.27
2022-08-27T23:53:34.460Z,89.25
2022-08-27T23:56:01.239Z,87.90
2022-08-27T23:58:27.943Z,88.21
